sensor_id;sensor_type;location;lat;lon;timestamp;P1;durP1;ratioP1;P2;durP2;ratioP2
3601;SDS011;1815;50.950;6.920;2022-10-16T00:00:36;3.00;;;1.10;;
3601;SDS011;1815;50.950;6.920;2022-10-16T00:03:04;2.30;;;1.30;;
3601;SDS011;1815;50.950;6.920;2022-10-16T00:05:30;2.20;;;1.07;;
3601;SDS011;1815;50.950;6.920;2022-10-16T00:07:56;2.33;;;0.90;;
3601;SDS011;1815;50.950;6.920;2022-10-16T00:10:22;2.00;;;1.00;;
3601;SDS011;1815;50.950;6.920;2022-10-16T00:12:48;3.77;;;0.80;;
3601;SDS011;1815;50.950;6.920;2022-10-16T00:15:14;2.50;;;0.90;;
3601;SDS011;1815;50.950;6.920;2022-10-16T00:17:40;1.30;;;0.70;;
3601;SDS011;1815;50.950;6.920;2022-10-16T00:20:06;2.03;;;0.90;;
3601;SDS011;1815;50.950;6.920;2022-10-16T00:22:33;1.47;;;0.77;;
3601;SDS011;1815;50.950;6.920;2022-10-16T00:24:58;1.50;;;0.90;;
3601;SDS011;1815;50.950;6.920;2022-10-16T00:27:24;2.10;;;1.20;;
3601;SDS011;1815;50.950;6.920;2022-10-16T00:29:50;1.80;;;0.90;;
3601;SDS011;1815;50.950;6.920;2022-10-16T00:32:17;1.73;;;0.80;;
3601;SDS011;1815;50.950;6.920;2022-10-16T00:34:44;1.90;;;0.97;;
3601;SDS011;1815;50.950;6.920;2022-10-16T00:37:10;1.40;;;0.80;;
3601;SDS011;1815;50.950;6.920;2022-10-16T00:39:36;1.70;;;1.10;;
3601;SDS011;1815;50.950;6.920;2022-10-16T00:42:02;2.57;;;1.10;;
3601;SDS011;1815;50.950;6.920;2022-10-16T00:44:45;1.53;;;0.80;;
3601;SDS011;1815;50.950;6.920;2022-10-16T00:47:12;1.80;;;1.00;;
3601;SDS011;1815;50.950;6.920;2022-10-16T00:50:09;1.80;;;0.90;;
3601;SDS011;1815;50.950;6.920;2022-10-16T00:52:42;1.70;;;1.00;;
3601;SDS011;1815;50.950;6.920;2022-10-16T00:55:11;1.30;;;0.80;;
3601;SDS011;1815;50.950;6.920;2022-10-16T00:57:37;1.67;;;0.90;;
3601;SDS011;1815;50.950;6.920;2022-10-16T01:00:04;1.60;;;1.03;;
3601;SDS011;1815;50.950;6.920;2022-10-16T01:02:32;1.57;;;0.80;;
3601;SDS011;1815;50.950;6.920;2022-10-16T01:04:58;1.60;;;0.87;;
3601;SDS011;1815;50.950;6.920;2022-10-16T01:07:39;1.70;;;0.90;;
3601;SDS011;1815;50.950;6.920;2022-10-16T01:13:11;1.70;;;0.97;;
3601;SDS011;1815;50.950;6.920;2022-10-16T01:15:56;1.53;;;0.73;;
3601;SDS011;1815;50.950;6.920;2022-10-16T01:18:47;1.80;;;0.80;;
3601;SDS011;1815;50.950;6.920;2022-10-16T01:21:38;1.43;;;0.60;;
3601;SDS011;1815;50.950;6.920;2022-10-16T01:24:19;1.60;;;0.70;;
3601;SDS011;1815;50.950;6.920;2022-10-16T01:35:37;1.37;;;0.63;;
3601;SDS011;1815;50.950;6.920;2022-10-16T01:38:15;3.67;;;0.90;;
3601;SDS011;1815;50.950;6.920;2022-10-16T01:40:44;1.60;;;0.60;;
3601;SDS011;1815;50.950;6.920;2022-10-16T01:43:13;1.17;;;0.60;;
3601;SDS011;1815;50.950;6.920;2022-10-16T01:45:41;2.33;;;0.70;;
3601;SDS011;1815;50.950;6.920;2022-10-16T01:48:09;1.40;;;0.70;;
3601;SDS011;1815;50.950;6.920;2022-10-16T01:50:39;2.17;;;0.70;;
3601;SDS011;1815;50.950;6.920;2022-10-16T01:53:08;1.20;;;0.60;;
3601;SDS011;1815;50.950;6.920;2022-10-16T01:55:38;1.70;;;0.80;;
3601;SDS011;1815;50.950;6.920;2022-10-16T01:58:10;1.40;;;0.60;;
3601;SDS011;1815;50.950;6.920;2022-10-16T02:00:39;3.83;;;0.80;;
3601;SDS011;1815;50.950;6.920;2022-10-16T02:03:07;1.50;;;0.70;;
3601;SDS011;1815;50.950;6.920;2022-10-16T02:08:10;1.27;;;0.60;;
3601;SDS011;1815;50.950;6.920;2022-10-16T02:10:36;2.63;;;0.90;;
3601;SDS011;1815;50.950;6.920;2022-10-16T02:15:34;1.50;;;0.60;;
3601;SDS011;1815;50.950;6.920;2022-10-16T02:18:01;1.33;;;0.80;;
3601;SDS011;1815;50.950;6.920;2022-10-16T02:20:28;1.40;;;0.70;;
3601;SDS011;1815;50.950;6.920;2022-10-16T02:23:00;1.30;;;0.80;;
3601;SDS011;1815;50.950;6.920;2022-10-16T02:25:31;1.50;;;0.60;;
3601;SDS011;1815;50.950;6.920;2022-10-16T02:28:06;1.30;;;0.70;;
3601;SDS011;1815;50.950;6.920;2022-10-16T02:30:46;2.23;;;0.80;;
3601;SDS011;1815;50.950;6.920;2022-10-16T02:33:16;1.30;;;0.70;;
3601;SDS011;1815;50.950;6.920;2022-10-16T02:35:44;2.30;;;0.60;;
3601;SDS011;1815;50.950;6.920;2022-10-16T02:38:12;2.37;;;0.70;;
3601;SDS011;1815;50.950;6.920;2022-10-16T02:40:40;1.60;;;0.80;;
3601;SDS011;1815;50.950;6.920;2022-10-16T02:43:07;1.40;;;0.70;;
3601;SDS011;1815;50.950;6.920;2022-10-16T02:45:34;3.53;;;0.80;;
3601;SDS011;1815;50.950;6.920;2022-10-16T02:48:00;1.30;;;0.60;;
3601;SDS011;1815;50.950;6.920;2022-10-16T02:50:26;1.50;;;0.80;;
3601;SDS011;1815;50.950;6.920;2022-10-16T02:52:52;1.40;;;0.70;;
3601;SDS011;1815;50.950;6.920;2022-10-16T02:55:18;1.87;;;0.80;;
3601;SDS011;1815;50.950;6.920;2022-10-16T02:57:44;1.30;;;0.70;;
3601;SDS011;1815;50.950;6.920;2022-10-16T03:00:10;1.30;;;0.60;;
3601;SDS011;1815;50.950;6.920;2022-10-16T03:02:38;1.40;;;0.67;;
3601;SDS011;1815;50.950;6.920;2022-10-16T03:05:04;1.50;;;0.80;;
3601;SDS011;1815;50.950;6.920;2022-10-16T03:07:30;1.60;;;0.60;;
3601;SDS011;1815;50.950;6.920;2022-10-16T03:09:56;2.13;;;0.60;;
3601;SDS011;1815;50.950;6.920;2022-10-16T03:12:25;2.30;;;0.60;;
3601;SDS011;1815;50.950;6.920;2022-10-16T03:14:51;1.50;;;0.80;;
3601;SDS011;1815;50.950;6.920;2022-10-16T03:17:18;1.90;;;0.70;;
3601;SDS011;1815;50.950;6.920;2022-10-16T03:19:43;1.50;;;0.70;;
3601;SDS011;1815;50.950;6.920;2022-10-16T03:22:09;1.20;;;0.60;;
3601;SDS011;1815;50.950;6.920;2022-10-16T03:24:35;1.40;;;0.60;;
3601;SDS011;1815;50.950;6.920;2022-10-16T03:27:01;1.30;;;0.70;;
3601;SDS011;1815;50.950;6.920;2022-10-16T03:29:27;1.30;;;0.70;;
3601;SDS011;1815;50.950;6.920;2022-10-16T03:31:54;2.03;;;0.70;;
3601;SDS011;1815;50.950;6.920;2022-10-16T03:34:20;1.53;;;0.70;;
3601;SDS011;1815;50.950;6.920;2022-10-16T03:36:46;1.60;;;0.70;;
3601;SDS011;1815;50.950;6.920;2022-10-16T03:39:12;1.20;;;0.60;;
3601;SDS011;1815;50.950;6.920;2022-10-16T03:41:38;3.10;;;0.57;;
3601;SDS011;1815;50.950;6.920;2022-10-16T03:44:03;1.23;;;0.60;;
3601;SDS011;1815;50.950;6.920;2022-10-16T03:46:29;1.40;;;0.70;;
3601;SDS011;1815;50.950;6.920;2022-10-16T03:48:55;1.60;;;0.70;;
3601;SDS011;1815;50.950;6.920;2022-10-16T03:51:20;2.43;;;0.60;;
3601;SDS011;1815;50.950;6.920;2022-10-16T03:53:46;1.43;;;0.60;;
3601;SDS011;1815;50.950;6.920;2022-10-16T03:56:13;1.67;;;0.70;;
3601;SDS011;1815;50.950;6.920;2022-10-16T03:58:39;1.37;;;0.70;;
3601;SDS011;1815;50.950;6.920;2022-10-16T04:01:04;1.30;;;0.60;;
3601;SDS011;1815;50.950;6.920;2022-10-16T04:03:30;1.70;;;0.57;;
3601;SDS011;1815;50.950;6.920;2022-10-16T04:05:56;1.20;;;0.60;;
3601;SDS011;1815;50.950;6.920;2022-10-16T04:08:22;1.30;;;0.60;;
3601;SDS011;1815;50.950;6.920;2022-10-16T04:10:48;1.77;;;0.70;;
3601;SDS011;1815;50.950;6.920;2022-10-16T04:13:13;1.30;;;0.60;;
3601;SDS011;1815;50.950;6.920;2022-10-16T04:15:39;1.30;;;0.60;;
3601;SDS011;1815;50.950;6.920;2022-10-16T04:18:05;1.17;;;0.50;;
3601;SDS011;1815;50.950;6.920;2022-10-16T04:20:31;1.40;;;0.80;;
3601;SDS011;1815;50.950;6.920;2022-10-16T04:22:57;1.27;;;0.60;;
3601;SDS011;1815;50.950;6.920;2022-10-16T04:25:23;1.43;;;0.50;;
3601;SDS011;1815;50.950;6.920;2022-10-16T04:27:49;2.40;;;0.60;;
3601;SDS011;1815;50.950;6.920;2022-10-16T04:30:15;2.23;;;0.60;;
3601;SDS011;1815;50.950;6.920;2022-10-16T04:32:41;2.17;;;0.60;;
3601;SDS011;1815;50.950;6.920;2022-10-16T04:35:07;1.70;;;0.60;;
3601;SDS011;1815;50.950;6.920;2022-10-16T04:37:33;1.40;;;0.60;;
3601;SDS011;1815;50.950;6.920;2022-10-16T04:39:58;1.33;;;0.60;;
3601;SDS011;1815;50.950;6.920;2022-10-16T04:42:24;3.03;;;0.60;;
3601;SDS011;1815;50.950;6.920;2022-10-16T04:44:50;1.50;;;0.60;;
3601;SDS011;1815;50.950;6.920;2022-10-16T04:47:16;1.30;;;0.60;;
3601;SDS011;1815;50.950;6.920;2022-10-16T04:49:41;1.20;;;0.60;;
3601;SDS011;1815;50.950;6.920;2022-10-16T04:52:07;1.17;;;0.50;;
3601;SDS011;1815;50.950;6.920;2022-10-16T04:54:34;1.60;;;0.60;;
3601;SDS011;1815;50.950;6.920;2022-10-16T04:57:00;1.33;;;0.60;;
3601;SDS011;1815;50.950;6.920;2022-10-16T04:59:26;1.70;;;0.70;;
3601;SDS011;1815;50.950;6.920;2022-10-16T05:01:51;1.20;;;0.60;;
3601;SDS011;1815;50.950;6.920;2022-10-16T05:04:17;1.70;;;0.60;;
3601;SDS011;1815;50.950;6.920;2022-10-16T05:06:43;3.60;;;0.60;;
3601;SDS011;1815;50.950;6.920;2022-10-16T05:09:09;2.00;;;0.60;;
3601;SDS011;1815;50.950;6.920;2022-10-16T05:11:35;1.20;;;0.60;;
3601;SDS011;1815;50.950;6.920;2022-10-16T05:14:00;1.20;;;0.60;;
3601;SDS011;1815;50.950;6.920;2022-10-16T05:16:26;1.90;;;0.60;;
3601;SDS011;1815;50.950;6.920;2022-10-16T05:18:53;1.87;;;0.60;;
3601;SDS011;1815;50.950;6.920;2022-10-16T05:21:19;1.20;;;0.60;;
3601;SDS011;1815;50.950;6.920;2022-10-16T05:23:45;1.87;;;0.60;;
3601;SDS011;1815;50.950;6.920;2022-10-16T05:26:10;1.50;;;0.60;;
3601;SDS011;1815;50.950;6.920;2022-10-16T05:28:36;1.43;;;0.50;;
3601;SDS011;1815;50.950;6.920;2022-10-16T05:31:05;2.70;;;0.60;;
3601;SDS011;1815;50.950;6.920;2022-10-16T05:33:32;1.70;;;0.60;;
3601;SDS011;1815;50.950;6.920;2022-10-16T05:36:00;1.93;;;0.53;;
3601;SDS011;1815;50.950;6.920;2022-10-16T05:38:28;2.53;;;0.87;;
3601;SDS011;1815;50.950;6.920;2022-10-16T05:40:54;1.20;;;0.50;;
3601;SDS011;1815;50.950;6.920;2022-10-16T05:43:19;1.50;;;0.70;;
3601;SDS011;1815;50.950;6.920;2022-10-16T05:45:53;2.17;;;0.70;;
3601;SDS011;1815;50.950;6.920;2022-10-16T05:48:26;2.23;;;0.63;;
3601;SDS011;1815;50.950;6.920;2022-10-16T05:50:56;2.30;;;0.50;;
3601;SDS011;1815;50.950;6.920;2022-10-16T05:53:29;1.97;;;0.60;;
3601;SDS011;1815;50.950;6.920;2022-10-16T05:55:57;2.00;;;0.70;;
3601;SDS011;1815;50.950;6.920;2022-10-16T05:58:23;1.20;;;0.50;;
3601;SDS011;1815;50.950;6.920;2022-10-16T06:00:54;1.90;;;0.70;;
3601;SDS011;1815;50.950;6.920;2022-10-16T06:03:28;1.33;;;0.70;;
3601;SDS011;1815;50.950;6.920;2022-10-16T06:05:53;1.70;;;0.70;;
3601;SDS011;1815;50.950;6.920;2022-10-16T06:08:20;1.30;;;0.63;;
3601;SDS011;1815;50.950;6.920;2022-10-16T06:10:47;1.33;;;0.70;;
3601;SDS011;1815;50.950;6.920;2022-10-16T06:13:14;3.20;;;0.70;;
3601;SDS011;1815;50.950;6.920;2022-10-16T06:15:41;1.30;;;0.70;;
3601;SDS011;1815;50.950;6.920;2022-10-16T06:18:08;2.27;;;0.60;;
3601;SDS011;1815;50.950;6.920;2022-10-16T06:20:35;1.40;;;0.70;;
3601;SDS011;1815;50.950;6.920;2022-10-16T06:23:01;3.60;;;0.70;;
3601;SDS011;1815;50.950;6.920;2022-10-16T06:25:26;2.90;;;0.80;;
3601;SDS011;1815;50.950;6.920;2022-10-16T06:27:52;1.30;;;0.70;;
3601;SDS011;1815;50.950;6.920;2022-10-16T06:30:18;3.60;;;0.80;;
3601;SDS011;1815;50.950;6.920;2022-10-16T06:32:44;2.13;;;0.70;;
3601;SDS011;1815;50.950;6.920;2022-10-16T06:35:09;1.80;;;0.80;;
3601;SDS011;1815;50.950;6.920;2022-10-16T06:37:35;1.30;;;0.70;;
3601;SDS011;1815;50.950;6.920;2022-10-16T06:40:01;2.60;;;0.70;;
3601;SDS011;1815;50.950;6.920;2022-10-16T06:42:29;3.43;;;0.87;;
3601;SDS011;1815;50.950;6.920;2022-10-16T06:44:55;1.60;;;0.60;;
3601;SDS011;1815;50.950;6.920;2022-10-16T06:47:21;1.50;;;0.70;;
3601;SDS011;1815;50.950;6.920;2022-10-16T06:49:47;1.47;;;0.63;;
3601;SDS011;1815;50.950;6.920;2022-10-16T06:52:13;1.93;;;0.70;;
3601;SDS011;1815;50.950;6.920;2022-10-16T06:54:38;1.60;;;0.70;;
3601;SDS011;1815;50.950;6.920;2022-10-16T06:57:04;1.40;;;0.70;;
3601;SDS011;1815;50.950;6.920;2022-10-16T06:59:30;1.33;;;0.70;;
3601;SDS011;1815;50.950;6.920;2022-10-16T07:01:56;1.40;;;0.60;;
3601;SDS011;1815;50.950;6.920;2022-10-16T07:04:21;1.70;;;0.70;;
3601;SDS011;1815;50.950;6.920;2022-10-16T07:06:47;1.70;;;0.87;;
3601;SDS011;1815;50.950;6.920;2022-10-16T07:09:13;1.67;;;0.77;;
3601;SDS011;1815;50.950;6.920;2022-10-16T07:11:39;2.53;;;0.70;;
3601;SDS011;1815;50.950;6.920;2022-10-16T07:14:16;2.13;;;0.70;;
3601;SDS011;1815;50.950;6.920;2022-10-16T07:16:43;1.20;;;0.60;;
3601;SDS011;1815;50.950;6.920;2022-10-16T07:19:08;1.83;;;0.60;;
3601;SDS011;1815;50.950;6.920;2022-10-16T07:21:36;1.20;;;0.60;;
3601;SDS011;1815;50.950;6.920;2022-10-16T07:24:06;1.20;;;0.60;;
3601;SDS011;1815;50.950;6.920;2022-10-16T07:26:36;1.50;;;0.70;;
3601;SDS011;1815;50.950;6.920;2022-10-16T07:29:11;2.00;;;0.67;;
3601;SDS011;1815;50.950;6.920;2022-10-16T07:31:42;1.37;;;0.57;;
3601;SDS011;1815;50.950;6.920;2022-10-16T07:34:09;2.23;;;0.80;;
3601;SDS011;1815;50.950;6.920;2022-10-16T07:36:36;1.30;;;0.70;;
3601;SDS011;1815;50.950;6.920;2022-10-16T07:39:02;1.30;;;0.60;;
3601;SDS011;1815;50.950;6.920;2022-10-16T07:41:28;1.40;;;0.60;;
3601;SDS011;1815;50.950;6.920;2022-10-16T07:43:55;1.60;;;0.60;;
3601;SDS011;1815;50.950;6.920;2022-10-16T07:46:25;1.57;;;0.60;;
3601;SDS011;1815;50.950;6.920;2022-10-16T07:48:51;1.30;;;0.60;;
3601;SDS011;1815;50.950;6.920;2022-10-16T07:51:18;1.60;;;0.57;;
3601;SDS011;1815;50.950;6.920;2022-10-16T07:53:46;2.20;;;1.10;;
3601;SDS011;1815;50.950;6.920;2022-10-16T07:56:12;2.07;;;0.90;;
3601;SDS011;1815;50.950;6.920;2022-10-16T07:58:39;1.50;;;0.60;;
3601;SDS011;1815;50.950;6.920;2022-10-16T08:01:06;1.40;;;0.60;;
3601;SDS011;1815;50.950;6.920;2022-10-16T08:03:34;1.70;;;0.63;;
3601;SDS011;1815;50.950;6.920;2022-10-16T08:06:00;1.43;;;0.70;;
3601;SDS011;1815;50.950;6.920;2022-10-16T08:08:27;1.53;;;0.60;;
3601;SDS011;1815;50.950;6.920;2022-10-16T08:10:53;1.30;;;0.60;;
3601;SDS011;1815;50.950;6.920;2022-10-16T08:13:19;1.40;;;0.63;;
3601;SDS011;1815;50.950;6.920;2022-10-16T08:15:45;2.33;;;0.50;;
3601;SDS011;1815;50.950;6.920;2022-10-16T08:18:12;1.70;;;0.70;;
3601;SDS011;1815;50.950;6.920;2022-10-16T08:20:38;2.97;;;0.60;;
3601;SDS011;1815;50.950;6.920;2022-10-16T08:23:05;1.40;;;0.67;;
3601;SDS011;1815;50.950;6.920;2022-10-16T08:25:33;1.57;;;0.70;;
3601;SDS011;1815;50.950;6.920;2022-10-16T08:28:04;2.00;;;0.60;;
3601;SDS011;1815;50.950;6.920;2022-10-16T08:30:31;3.17;;;0.50;;
3601;SDS011;1815;50.950;6.920;2022-10-16T08:32:56;1.20;;;0.40;;
3601;SDS011;1815;50.950;6.920;2022-10-16T08:35:23;1.70;;;0.47;;
3601;SDS011;1815;50.950;6.920;2022-10-16T08:37:49;1.40;;;0.50;;
3601;SDS011;1815;50.950;6.920;2022-10-16T08:40:16;1.37;;;0.57;;
3601;SDS011;1815;50.950;6.920;2022-10-16T08:45:26;1.20;;;0.50;;
3601;SDS011;1815;50.950;6.920;2022-10-16T08:48:10;1.20;;;0.40;;
3601;SDS011;1815;50.950;6.920;2022-10-16T08:50:43;2.27;;;0.70;;
3601;SDS011;1815;50.950;6.920;2022-10-16T08:56:01;1.30;;;0.50;;
3601;SDS011;1815;50.950;6.920;2022-10-16T08:58:28;1.30;;;0.60;;
3601;SDS011;1815;50.950;6.920;2022-10-16T09:00:56;1.33;;;0.50;;
3601;SDS011;1815;50.950;6.920;2022-10-16T09:11:47;1.50;;;0.57;;
3601;SDS011;1815;50.950;6.920;2022-10-16T09:14:52;1.40;;;0.50;;
3601;SDS011;1815;50.950;6.920;2022-10-16T09:23:13;1.80;;;0.93;;
3601;SDS011;1815;50.950;6.920;2022-10-16T09:25:45;1.97;;;0.93;;
3601;SDS011;1815;50.950;6.920;2022-10-16T09:28:13;2.93;;;1.53;;
3601;SDS011;1815;50.950;6.920;2022-10-16T09:30:39;1.90;;;0.87;;
3601;SDS011;1815;50.950;6.920;2022-10-16T09:33:05;1.73;;;0.70;;
3601;SDS011;1815;50.950;6.920;2022-10-16T09:35:43;1.83;;;0.70;;
3601;SDS011;1815;50.950;6.920;2022-10-16T09:40:56;4.30;;;1.90;;
3601;SDS011;1815;50.950;6.920;2022-10-16T09:46:05;1.73;;;0.97;;
3601;SDS011;1815;50.950;6.920;2022-10-16T09:48:52;1.43;;;0.60;;
3601;SDS011;1815;50.950;6.920;2022-10-16T09:51:42;1.50;;;0.63;;
3601;SDS011;1815;50.950;6.920;2022-10-16T09:56:34;1.60;;;0.90;;
3601;SDS011;1815;50.950;6.920;2022-10-16T09:59:11;2.80;;;1.07;;
3601;SDS011;1815;50.950;6.920;2022-10-16T10:01:39;2.70;;;0.80;;
3601;SDS011;1815;50.950;6.920;2022-10-16T10:04:08;1.30;;;0.60;;
3601;SDS011;1815;50.950;6.920;2022-10-16T10:06:36;1.70;;;0.60;;
3601;SDS011;1815;50.950;6.920;2022-10-16T10:12:17;3.73;;;0.50;;
3601;SDS011;1815;50.950;6.920;2022-10-16T10:14:49;1.40;;;0.50;;
3601;SDS011;1815;50.950;6.920;2022-10-16T10:17:19;1.47;;;0.40;;
3601;SDS011;1815;50.950;6.920;2022-10-16T10:33:29;1.50;;;0.43;;
3601;SDS011;1815;50.950;6.920;2022-10-16T10:39:00;12.03;;;0.70;;
3601;SDS011;1815;50.950;6.920;2022-10-16T10:46:57;1.93;;;0.40;;
3601;SDS011;1815;50.950;6.920;2022-10-16T11:06:12;1.30;;;0.40;;
3601;SDS011;1815;50.950;6.920;2022-10-16T11:08:54;1.30;;;0.60;;
3601;SDS011;1815;50.950;6.920;2022-10-16T11:11:34;1.17;;;0.40;;
3601;SDS011;1815;50.950;6.920;2022-10-16T11:14:19;1.60;;;0.40;;
3601;SDS011;1815;50.950;6.920;2022-10-16T11:16:49;2.27;;;0.70;;
3601;SDS011;1815;50.950;6.920;2022-10-16T11:19:26;3.20;;;0.80;;
3601;SDS011;1815;50.950;6.920;2022-10-16T11:22:06;1.50;;;0.70;;
3601;SDS011;1815;50.950;6.920;2022-10-16T11:24:36;1.30;;;0.50;;
3601;SDS011;1815;50.950;6.920;2022-10-16T11:27:11;1.33;;;0.50;;
3601;SDS011;1815;50.950;6.920;2022-10-16T11:29:46;1.67;;;0.70;;
3601;SDS011;1815;50.950;6.920;2022-10-16T11:32:22;1.40;;;0.60;;
3601;SDS011;1815;50.950;6.920;2022-10-16T11:34:57;3.10;;;1.03;;
3601;SDS011;1815;50.950;6.920;2022-10-16T11:37:31;1.80;;;1.10;;
3601;SDS011;1815;50.950;6.920;2022-10-16T11:40:04;2.10;;;0.70;;
3601;SDS011;1815;50.950;6.920;2022-10-16T11:42:44;5.30;;;4.47;;
3601;SDS011;1815;50.950;6.920;2022-10-16T11:45:33;3.03;;;2.50;;
3601;SDS011;1815;50.950;6.920;2022-10-16T11:48:20;1.83;;;1.03;;
3601;SDS011;1815;50.950;6.920;2022-10-16T11:50:52;2.20;;;0.77;;
3601;SDS011;1815;50.950;6.920;2022-10-16T11:56:19;1.40;;;0.40;;
3601;SDS011;1815;50.950;6.920;2022-10-16T11:58:52;1.30;;;0.50;;
3601;SDS011;1815;50.950;6.920;2022-10-16T12:01:19;2.47;;;0.40;;
3601;SDS011;1815;50.950;6.920;2022-10-16T12:04:16;1.60;;;0.60;;
3601;SDS011;1815;50.950;6.920;2022-10-16T12:06:55;1.23;;;0.50;;
3601;SDS011;1815;50.950;6.920;2022-10-16T12:09:27;1.90;;;0.50;;
3601;SDS011;1815;50.950;6.920;2022-10-16T12:11:54;1.43;;;0.50;;
3601;SDS011;1815;50.950;6.920;2022-10-16T12:14:22;3.03;;;0.50;;
3601;SDS011;1815;50.950;6.920;2022-10-16T12:17:02;1.60;;;0.50;;
3601;SDS011;1815;50.950;6.920;2022-10-16T12:19:31;2.30;;;0.90;;
3601;SDS011;1815;50.950;6.920;2022-10-16T12:21:59;1.30;;;0.50;;
3601;SDS011;1815;50.950;6.920;2022-10-16T12:24:29;1.73;;;0.73;;
3601;SDS011;1815;50.950;6.920;2022-10-16T12:27:04;1.40;;;0.60;;
3601;SDS011;1815;50.950;6.920;2022-10-16T12:29:36;2.87;;;0.90;;
3601;SDS011;1815;50.950;6.920;2022-10-16T12:32:05;2.90;;;1.43;;
3601;SDS011;1815;50.950;6.920;2022-10-16T12:34:46;1.60;;;0.60;;
3601;SDS011;1815;50.950;6.920;2022-10-16T12:39:46;1.30;;;0.50;;
3601;SDS011;1815;50.950;6.920;2022-10-16T12:42:33;1.20;;;0.40;;
3601;SDS011;1815;50.950;6.920;2022-10-16T12:44:59;1.43;;;0.40;;
3601;SDS011;1815;50.950;6.920;2022-10-16T12:49:58;1.20;;;0.37;;
3601;SDS011;1815;50.950;6.920;2022-10-16T12:55:01;1.60;;;0.40;;
3601;SDS011;1815;50.950;6.920;2022-10-16T13:02:43;1.87;;;0.70;;
3601;SDS011;1815;50.950;6.920;2022-10-16T13:05:26;1.30;;;0.50;;
3601;SDS011;1815;50.950;6.920;2022-10-16T13:08:26;1.30;;;0.40;;
3601;SDS011;1815;50.950;6.920;2022-10-16T13:16:10;1.60;;;0.40;;
3601;SDS011;1815;50.950;6.920;2022-10-16T13:21:33;1.20;;;0.40;;
3601;SDS011;1815;50.950;6.920;2022-10-16T13:24:16;1.53;;;0.43;;
3601;SDS011;1815;50.950;6.920;2022-10-16T13:29:13;1.40;;;0.50;;
3601;SDS011;1815;50.950;6.920;2022-10-16T13:31:39;1.93;;;0.50;;
3601;SDS011;1815;50.950;6.920;2022-10-16T13:34:06;1.67;;;0.50;;
3601;SDS011;1815;50.950;6.920;2022-10-16T13:36:46;1.80;;;0.70;;
3601;SDS011;1815;50.950;6.920;2022-10-16T13:39:20;2.37;;;0.50;;
3601;SDS011;1815;50.950;6.920;2022-10-16T13:42:03;2.20;;;0.70;;
3601;SDS011;1815;50.950;6.920;2022-10-16T13:44:36;2.07;;;0.50;;
3601;SDS011;1815;50.950;6.920;2022-10-16T13:47:10;1.20;;;0.40;;
3601;SDS011;1815;50.950;6.920;2022-10-16T13:49:43;1.20;;;0.40;;
3601;SDS011;1815;50.950;6.920;2022-10-16T13:52:16;1.80;;;0.60;;
3601;SDS011;1815;50.950;6.920;2022-10-16T13:54:44;3.20;;;0.50;;
3601;SDS011;1815;50.950;6.920;2022-10-16T13:57:14;1.40;;;0.50;;
3601;SDS011;1815;50.950;6.920;2022-10-16T13:59:40;2.53;;;0.60;;
3601;SDS011;1815;50.950;6.920;2022-10-16T14:02:20;1.50;;;0.50;;
3601;SDS011;1815;50.950;6.920;2022-10-16T14:05:08;1.90;;;0.73;;
3601;SDS011;1815;50.950;6.920;2022-10-16T14:07:35;2.47;;;0.90;;
3601;SDS011;1815;50.950;6.920;2022-10-16T14:10:06;2.50;;;1.60;;
3601;SDS011;1815;50.950;6.920;2022-10-16T14:12:45;2.37;;;1.00;;
3601;SDS011;1815;50.950;6.920;2022-10-16T14:15:20;1.90;;;0.80;;
3601;SDS011;1815;50.950;6.920;2022-10-16T14:17:47;4.63;;;1.57;;
3601;SDS011;1815;50.950;6.920;2022-10-16T14:20:16;8.10;;;4.80;;
3601;SDS011;1815;50.950;6.920;2022-10-16T14:22:42;9.80;;;7.23;;
3601;SDS011;1815;50.950;6.920;2022-10-16T14:28:00;1.83;;;0.90;;
3601;SDS011;1815;50.950;6.920;2022-10-16T14:30:48;1.43;;;0.57;;
3601;SDS011;1815;50.950;6.920;2022-10-16T14:33:24;1.70;;;0.50;;
3601;SDS011;1815;50.950;6.920;2022-10-16T14:38:28;1.27;;;0.50;;
3601;SDS011;1815;50.950;6.920;2022-10-16T14:40:54;2.40;;;0.50;;
3601;SDS011;1815;50.950;6.920;2022-10-16T14:43:44;1.30;;;0.50;;
3601;SDS011;1815;50.950;6.920;2022-10-16T14:46:15;1.40;;;0.60;;
3601;SDS011;1815;50.950;6.920;2022-10-16T14:48:45;1.20;;;0.40;;
3601;SDS011;1815;50.950;6.920;2022-10-16T14:51:15;1.40;;;0.50;;
3601;SDS011;1815;50.950;6.920;2022-10-16T14:53:42;1.30;;;0.40;;
3601;SDS011;1815;50.950;6.920;2022-10-16T14:56:15;1.60;;;0.60;;
3601;SDS011;1815;50.950;6.920;2022-10-16T14:58:43;1.40;;;0.50;;
3601;SDS011;1815;50.950;6.920;2022-10-16T15:01:10;1.30;;;0.40;;
3601;SDS011;1815;50.950;6.920;2022-10-16T15:03:37;1.53;;;0.50;;
3601;SDS011;1815;50.950;6.920;2022-10-16T15:06:03;1.47;;;0.47;;
3601;SDS011;1815;50.950;6.920;2022-10-16T15:08:34;2.00;;;0.53;;
3601;SDS011;1815;50.950;6.920;2022-10-16T15:11:00;2.40;;;0.40;;
3601;SDS011;1815;50.950;6.920;2022-10-16T15:13:26;1.77;;;0.40;;
3601;SDS011;1815;50.950;6.920;2022-10-16T15:15:51;1.60;;;0.70;;
3601;SDS011;1815;50.950;6.920;2022-10-16T15:18:18;1.57;;;0.70;;
3601;SDS011;1815;50.950;6.920;2022-10-16T15:20:47;2.60;;;0.60;;
3601;SDS011;1815;50.950;6.920;2022-10-16T15:23:15;2.37;;;0.70;;
3601;SDS011;1815;50.950;6.920;2022-10-16T15:25:46;1.30;;;0.60;;
3601;SDS011;1815;50.950;6.920;2022-10-16T15:28:13;1.70;;;0.80;;
3601;SDS011;1815;50.950;6.920;2022-10-16T15:30:40;1.87;;;0.70;;
3601;SDS011;1815;50.950;6.920;2022-10-16T15:33:11;2.03;;;0.70;;
3601;SDS011;1815;50.950;6.920;2022-10-16T15:35:39;1.77;;;0.90;;
3601;SDS011;1815;50.950;6.920;2022-10-16T15:38:05;3.43;;;1.07;;
3601;SDS011;1815;50.950;6.920;2022-10-16T15:40:30;4.30;;;3.00;;
3601;SDS011;1815;50.950;6.920;2022-10-16T15:42:56;2.70;;;1.90;;
3601;SDS011;1815;50.950;6.920;2022-10-16T15:45:22;4.13;;;2.43;;
3601;SDS011;1815;50.950;6.920;2022-10-16T15:47:48;3.57;;;1.90;;
3601;SDS011;1815;50.950;6.920;2022-10-16T15:50:14;1.80;;;1.00;;
3601;SDS011;1815;50.950;6.920;2022-10-16T15:52:41;1.90;;;0.90;;
3601;SDS011;1815;50.950;6.920;2022-10-16T15:55:07;2.50;;;0.80;;
3601;SDS011;1815;50.950;6.920;2022-10-16T15:57:35;1.60;;;0.80;;
3601;SDS011;1815;50.950;6.920;2022-10-16T16:00:04;2.07;;;1.00;;
3601;SDS011;1815;50.950;6.920;2022-10-16T16:02:37;3.33;;;1.67;;
3601;SDS011;1815;50.950;6.920;2022-10-16T16:05:03;2.40;;;1.33;;
3601;SDS011;1815;50.950;6.920;2022-10-16T16:07:32;1.90;;;1.00;;
3601;SDS011;1815;50.950;6.920;2022-10-16T16:09:59;1.97;;;1.20;;
3601;SDS011;1815;50.950;6.920;2022-10-16T16:12:25;3.47;;;2.70;;
3601;SDS011;1815;50.950;6.920;2022-10-16T16:14:50;6.10;;;3.97;;
3601;SDS011;1815;50.950;6.920;2022-10-16T16:17:16;5.10;;;3.43;;
3601;SDS011;1815;50.950;6.920;2022-10-16T16:19:43;6.10;;;4.10;;
3601;SDS011;1815;50.950;6.920;2022-10-16T16:22:08;3.97;;;2.27;;
3601;SDS011;1815;50.950;6.920;2022-10-16T16:24:34;2.50;;;1.80;;
3601;SDS011;1815;50.950;6.920;2022-10-16T16:27:00;4.10;;;2.93;;
3601;SDS011;1815;50.950;6.920;2022-10-16T16:29:26;5.80;;;3.73;;
3601;SDS011;1815;50.950;6.920;2022-10-16T16:31:52;4.90;;;3.40;;
3601;SDS011;1815;50.950;6.920;2022-10-16T16:34:25;3.43;;;2.50;;
3601;SDS011;1815;50.950;6.920;2022-10-16T16:36:52;3.23;;;1.87;;
3601;SDS011;1815;50.950;6.920;2022-10-16T16:39:19;1.73;;;1.10;;
3601;SDS011;1815;50.950;6.920;2022-10-16T16:41:45;1.77;;;0.80;;
3601;SDS011;1815;50.950;6.920;2022-10-16T16:44:11;2.73;;;2.13;;
3601;SDS011;1815;50.950;6.920;2022-10-16T16:46:37;2.87;;;1.80;;
3601;SDS011;1815;50.950;6.920;2022-10-16T16:49:04;5.83;;;4.27;;
3601;SDS011;1815;50.950;6.920;2022-10-16T16:51:31;3.70;;;2.57;;
3601;SDS011;1815;50.950;6.920;2022-10-16T16:53:58;2.53;;;1.60;;
3601;SDS011;1815;50.950;6.920;2022-10-16T16:56:25;1.93;;;0.80;;
3601;SDS011;1815;50.950;6.920;2022-10-16T16:58:52;3.20;;;1.90;;
3601;SDS011;1815;50.950;6.920;2022-10-16T17:01:21;10.87;;;8.33;;
3601;SDS011;1815;50.950;6.920;2022-10-16T17:03:49;9.43;;;7.70;;
3601;SDS011;1815;50.950;6.920;2022-10-16T17:06:17;11.00;;;5.80;;
3601;SDS011;1815;50.950;6.920;2022-10-16T17:08:44;4.10;;;3.20;;
3601;SDS011;1815;50.950;6.920;2022-10-16T17:11:14;3.80;;;2.50;;
3601;SDS011;1815;50.950;6.920;2022-10-16T17:13:44;3.47;;;1.90;;
3601;SDS011;1815;50.950;6.920;2022-10-16T17:16:10;3.50;;;1.83;;
3601;SDS011;1815;50.950;6.920;2022-10-16T17:18:36;4.20;;;3.17;;
3601;SDS011;1815;50.950;6.920;2022-10-16T17:21:03;2.60;;;1.80;;
3601;SDS011;1815;50.950;6.920;2022-10-16T17:23:31;3.03;;;1.30;;
3601;SDS011;1815;50.950;6.920;2022-10-16T17:26:07;2.20;;;1.77;;